San Francisco, CA

09:13 AM PST die 21o November, anno 2017 (GMT -0800)
San Francisco International | | Change Station

Elev 10 ft 37.62 °N, 122.37 °W | Updated 17 minutes ago

Plerumque Nubila
Plerumque Nubila
58 °F
Feels Like 58 °F
N
6
Ventus Variabilis Ventus from Eurus

Hodie
High -- | Low -- °F
--% Chance of Precip.
Yesterday
High -- | Low -- °F
Precip. -- in
Pressio 30.18 in
Visibilitas 9.0 milia passuum
Clouds Plerumque Nubila 18000 ft
Frigus in quo Ros apparet 53 °F
Umor 84%
Rainfall 0.00 in
Snow Depth Not available.
6:56 AM 4:54 PM
Waxing Crescent, 9% visible
METAR KSFO 211656Z 09005KT 9SM BKN180 14/12 A3018 RMK AO2 SLP219 T01440117
Pressio 30.18 in
Visibilitas 9.0 milia passuum
Clouds Plerumque Nubila 18000 ft
Frigus in quo Ros apparet 53 °F
Umor 84%
Rainfall 0.00 in
Snow Depth Not available.
6:56 AM 4:54 PM
Waxing Crescent, 9% visible
METAR KSFO 211656Z 09005KT 9SM BKN180 14/12 A3018 RMK AO2 SLP219 T01440117

Get Severe Weather Alerts

Thanks for signing up!

Be on the lookout for a verification email in your inbox.

You'll start receiving the daily forecast at 6 AM.

×

10-Day Weather Forecast

Almanac

Astronomy

Nov. 21, 2017 Rise Set
Actual Time
Civil Twilight
Nautical Twilight
Astronomical Twilight
Moon
Length Of Visible Light
Length of Day
Tomorrow will be .
, % of the Moon is Illuminated

Today's Extremes

State Highs State Lows

Community

WunderPhotos

Category 6

Welcome to Category 6. This is the collective home for Weather Underground's featured writeups by Dr. Jeff Masters (right), Bob Henson (left), Chris Burt, and other regular contributors.

Nearby

Air Quality

  Air Quality AQ Index Pollutant
Not available.

Snow Depth

Station Depth Elevation

Earthquake Activity

City Distance Mag. Time & Date
Minimum magnitude displayed is 2.5.

Coastal Water Temperatures

Locus Calor

Stations

Nearby Weather Stations

Station Location Temp Frigus Venti Frigus in quo Ros apparet Umor Ventus Precip. Elev Renovata Type
                   

Watches & Warnings

There are currently no watches in effect.